Time;durP1;ratioP1;P1;durP2;ratioP2;P2;SDS_P1;SDS_P2;PMS_P1;PMS_P2;Temp;Humidity;BMP_temperature;BMP_pressure;BME280_temperature;BME280_humidity;BME280_pressure;Samples;Min_cycle;Max_cycle;Signal;HPM_P1;HPM_P2
2022/09/20 00:01:45;;;;;;;12.27;1.90;;;;;;;-143.48;74.59;79398.56;5075792;28;20024;-42
2022/09/20 00:04:10;;;;;;;6.18;1.50;;;;;;;-143.48;74.45;79410.47;5075796;28;20027;-44
2022/09/20 00:06:35;;;;;;;7.15;1.52;;;;;;;-143.48;74.64;79406.50;5075963;28;20474;-42
2022/09/20 00:09:01;;;;;;;9.68;1.55;;;;;;;-143.48;74.85;79406.50;5075616;28;20020;-44
2022/09/20 00:11:30;;;;;;;6.65;1.67;;;;;;;-143.48;74.70;79402.53;5075627;28;20104;-44
2022/09/20 00:13:57;;;;;;;7.78;1.45;;;;;;;-143.48;74.58;79404.50;5075594;28;20150;-44
2022/09/20 00:16:26;;;;;;;7.35;1.50;;;;;;;-143.48;74.31;79426.31;5075885;28;20063;-43
2022/09/20 00:18:54;;;;;;;5.65;1.50;;;;;;;-143.48;74.83;79434.25;5075207;28;20464;-42
2022/09/20 00:21:22;;;;;;;6.28;1.50;;;;;;;-143.48;74.85;79450.13;5075066;28;20025;-43
2022/09/20 00:23:48;;;;;;;9.43;1.65;;;;;;;-143.48;75.31;79452.13;5075169;28;20027;-45
2022/09/20 00:26:14;;;;;;;10.63;1.83;;;;;;;-143.48;75.51;79448.16;5075355;28;20360;-46
2022/09/20 00:28:40;;;;;;;7.15;1.50;;;;;;;-143.48;75.52;79456.09;5075575;28;20035;-43
2022/09/20 00:31:06;;;;;;;5.13;1.58;;;;;;;-143.48;75.66;79452.13;5075169;28;20027;-44
2022/09/20 00:36:16;;;;;;;7.43;1.73;;;;;;;-143.48;75.17;79475.91;5075180;28;20042;-43
2022/09/20 00:38:41;;;;;;;6.72;1.40;;;;;;;-143.48;75.66;79481.88;5074809;28;20017;-44
2022/09/20 00:41:07;;;;;;;5.40;1.38;;;;;;;-143.48;75.83;79479.88;5075301;28;20028;-44
2022/09/20 00:43:39;;;;;;;8.02;2.42;;;;;;;-143.48;76.17;79495.75;5075254;28;20032;-43
2022/09/20 00:46:13;;;;;;;7.40;1.67;;;;;;;-143.48;76.31;79497.75;5075311;28;20070;-45
2022/09/20 00:48:39;;;;;;;9.10;2.17;;;;;;;-143.48;76.04;79499.72;5074646;28;20078;-44
2022/09/20 00:51:11;;;;;;;6.50;1.77;;;;;;;-143.48;76.17;79497.75;5074538;28;20024;-46
2022/09/20 00:53:41;;;;;;;10.73;2.08;;;;;;;-143.48;75.89;79491.78;5075311;28;20023;-43
2022/09/20 00:56:14;;;;;;;10.38;2.20;;;;;;;-143.48;76.81;79477.91;5074961;28;20021;-45
2022/09/20 00:58:45;;;;;;;6.55;1.50;;;;;;;-143.48;76.17;79479.88;5073687;28;20356;-45
2022/09/20 01:01:12;;;;;;;6.82;1.60;;;;;;;-143.48;76.22;79475.91;5074904;28;20025;-43
2022/09/20 01:03:40;;;;;;;6.82;1.80;;;;;;;-143.48;76.46;79466.00;5074540;28;20035;-45
2022/09/20 01:06:10;;;;;;;7.95;2.20;;;;;;;-143.48;76.49;79464.03;5075317;28;20025;-46
2022/09/20 01:08:37;;;;;;;9.50;1.80;;;;;;;-143.48;76.07;79460.06;5074300;28;20020;-46
2022/09/20 01:11:03;;;;;;;12.68;1.85;;;;;;;-143.48;76.08;79450.13;5074189;28;20021;-44
2022/09/20 01:13:28;;;;;;;8.25;1.80;;;;;;;-143.48;76.06;79460.06;5074059;28;20051;-44
2022/09/20 01:15:57;;;;;;;7.65;1.75;;;;;;;-143.48;75.91;79444.19;5074105;28;20017;-43
2022/09/20 01:18:24;;;;;;;9.98;1.77;;;;;;;-143.48;76.00;79460.06;5074851;28;20024;-43
2022/09/20 01:20:50;;;;;;;9.40;1.95;;;;;;;-143.48;76.05;79442.19;5073985;28;20024;-44
2022/09/20 01:23:46;;;;;;;12.60;1.75;;;;;;;-143.48;75.71;79454.09;5074586;28;20511;-45
2022/09/20 01:26:29;;;;;;;8.05;2.00;;;;;;;-143.48;75.85;79440.22;5074023;28;20115;-44
2022/09/20 01:29:03;;;;;;;5.25;1.60;;;;;;;-143.48;76.09;79438.22;5073898;28;20100;-43
2022/09/20 01:31:33;;;;;;;4.07;1.20;;;;;;;-143.48;76.02;79450.13;5056721;28;20055;-45
2022/09/20 01:34:20;;;;;;;7.53;1.80;;;;;;;-143.48;75.75;79464.03;5055959;28;20391;-45
2022/09/20 01:36:51;;;;;;;7.57;1.45;;;;;;;-143.48;75.76;79469.97;5073442;28;20089;-43
2022/09/20 01:39:46;;;;;;;12.35;1.67;;;;;;;-143.48;76.16;79467.97;5074146;28;20032;-43
2022/09/20 01:42:13;;;;;;;9.02;1.85;;;;;;;-143.48;76.41;79473.94;5073571;28;20112;-44
2022/09/20 01:45:00;;;;;;;9.48;2.00;;;;;;;-143.48;76.95;79466.00;5073703;28;20028;-44
2022/09/20 01:47:34;;;;;;;5.60;1.50;;;;;;;-143.48;76.80;79458.06;5073556;28;20028;-44
2022/09/20 01:50:03;;;;;;;9.70;2.00;;;;;;;-143.48;76.85;79438.22;5073640;28;20021;-45
2022/09/20 01:52:47;;;;;;;9.38;1.80;;;;;;;-143.48;76.55;79452.13;5073789;28;20544;-44
2022/09/20 01:55:49;;;;;;;10.45;1.95;;;;;;;-143.48;77.14;79446.16;5073592;28;20104;-44
2022/09/20 01:58:44;;;;;;;8.93;1.60;;;;;;;-143.48;77.00;79436.25;5055501;28;20383;-44
2022/09/20 02:01:48;;;;;;;9.63;1.83;;;;;;;-143.48;76.69;79432.28;5073431;28;20115;-44
2022/09/20 02:04:35;;;;;;;6.10;1.70;;;;;;;-143.48;77.25;79460.06;5073690;28;20073;-44
2022/09/20 02:07:12;;;;;;;6.05;1.63;;;;;;;-143.48;77.54;79456.09;5073752;28;20028;-44
2022/09/20 02:09:59;;;;;;;10.50;2.00;;;;;;;-143.48;77.90;79467.97;5073380;28;20074;-43
2022/09/20 02:12:43;;;;;;;8.93;1.95;;;;;;;-143.48;77.49;79469.97;5073631;28;20025;-43
2022/09/20 02:15:46;;;;;;;6.50;1.77;;;;;;;-143.48;77.72;79467.97;5073626;28;20036;-44
2022/09/20 02:18:44;;;;;;;10.75;1.67;;;;;;;-143.48;78.24;79481.88;5073816;28;20043;-43
2022/09/20 02:21:33;;;;;;;8.60;2.00;;;;;;;-143.48;78.48;79493.78;5073112;28;20024;-45
2022/09/20 02:24:44;;;;;;;6.57;1.70;;;;;;;-143.48;78.73;79497.75;5073268;28;20047;-44
2022/09/20 02:27:35;;;;;;;6.72;1.83;;;;;;;-143.48;78.83;79495.75;4972447;28;20065;-43
2022/09/20 02:30:43;;;;;;;10.85;1.92;;;;;;;-143.48;78.98;79507.66;4962814;28;20129;-44
2022/09/20 02:33:34;;;;;;;6.45;1.70;;;;;;;-143.48;79.32;79517.56;5070873;28;20036;-45
2022/09/20 02:36:19;;;;;;;6.15;1.73;;;;;;;-143.48;79.25;79521.53;5073367;28;20060;-44
2022/09/20 02:39:09;;;;;;;5.30;1.80;;;;;;;-143.48;79.34;79521.53;5073121;28;20107;-42
2022/09/20 02:41:53;;;;;;;6.15;1.98;;;;;;;-143.48;79.38;79531.47;5073615;28;20074;-46
2022/09/20 02:44:40;;;;;;;6.57;1.90;;;;;;;-143.48;79.61;79535.44;5073624;28;20029;-43
2022/09/20 02:47:33;;;;;;;7.97;2.22;;;;;;;-143.48;79.18;79537.41;5073064;28;20025;-42
2022/09/20 02:50:34;;;;;;;3.30;1.80;;;;;;;-143.48;79.81;79543.38;5055427;28;20462;-43
2022/09/20 02:53:36;;;;;;;6.47;2.00;;;;;;;-143.48;79.19;79563.22;5072973;28;20451;-45
2022/09/20 02:56:31;;;;;;;10.85;2.63;;;;;;;-143.48;80.03;79557.25;5073532;28;20024;-44
2022/09/20 02:59:02;;;;;;;9.73;1.92;;;;;;;-143.48;80.40;79547.34;5073193;28;20077;-44
2022/09/20 03:01:55;;;;;;;8.43;2.13;;;;;;;-143.48;80.70;79553.28;5072864;28;20024;-44
2022/09/20 03:04:32;;;;;;;7.38;2.05;;;;;;;-143.48;80.66;79549.31;5073347;28;20128;-45
2022/09/20 03:07:04;;;;;;;9.10;2.22;;;;;;;-143.48;80.51;79523.53;5073109;28;20021;-46
2022/09/20 03:09:53;;;;;;;9.43;2.15;;;;;;;-143.48;80.13;79519.56;5054915;28;20028;-44
2022/09/20 03:12:43;;;;;;;7.57;2.33;;;;;;;-143.48;80.39;79523.53;5072838;28;20020;-44
2022/09/20 03:15:27;;;;;;;8.10;2.00;;;;;;;-143.48;80.19;79543.38;5054835;28;20494;-43
2022/09/20 03:18:05;;;;;;;10.68;1.92;;;;;;;-143.48;80.58;79545.34;5073053;28;20031;-46
2022/09/20 03:20:55;;;;;;;7.90;2.13;;;;;;;-143.48;80.74;79535.44;5074049;28;20107;-45
2022/09/20 03:23:48;;;;;;;9.85;2.17;;;;;;;-143.48;80.70;79535.44;5076340;28;20028;-44
2022/09/20 03:26:20;;;;;;;7.57;2.17;;;;;;;-143.48;80.61;79543.38;5076209;28;20082;-44
2022/09/20 03:29:14;;;;;;;5.80;1.80;;;;;;;-143.48;80.69;79543.38;5076524;28;20555;-43
2022/09/20 03:32:00;;;;;;;9.15;2.10;;;;;;;-143.48;80.72;79557.25;5076696;28;20098;-45
2022/09/20 03:34:56;;;;;;;7.35;2.10;;;;;;;-143.48;80.70;79565.19;5058216;28;20047;-42
2022/09/20 03:37:39;;;;;;;5.05;1.70;;;;;;;-143.48;80.75;79567.19;5076012;28;20028;-44
2022/09/20 03:40:51;;;;;;;7.13;1.90;;;;;;;-143.48;80.76;79579.06;5075938;28;20031;-43
2022/09/20 03:43:33;;;;;;;10.95;2.42;;;;;;;-143.48;80.71;79577.09;4975678;28;20030;-44
2022/09/20 03:46:34;;;;;;;7.97;2.20;;;;;;;-143.48;81.03;79569.16;5074227;28;20037;-45
2022/09/20 03:49:08;;;;;;;7.05;1.83;;;;;;;-143.48;80.66;79583.03;5058609;28;20283;-45
2022/09/20 03:51:55;;;;;;;7.18;2.00;;;;;;;-143.48;80.80;79585.03;5076033;28;20032;-44
2022/09/20 03:54:26;;;;;;;10.63;2.10;;;;;;;-143.48;81.05;79577.09;5076263;28;20406;-43
2022/09/20 03:57:09;;;;;;;9.20;1.98;;;;;;;-143.48;80.95;79561.22;5076271;28;20063;-46
2022/09/20 04:00:04;;;;;;;;;;;;;;;-143.48;80.94;79563.22;5076258;28;20047;-42
2022/09/20 04:02:37;;;;;;;4.70;1.63;;;;;;;-143.48;80.91;79553.28;5058520;28;20271;-44
2022/09/20 04:05:08;;;;;;;5.38;1.77;;;;;;;-143.48;80.44;79565.19;5075563;28;20107;-42
2022/09/20 04:07:46;;;;;;;6.20;1.90;;;;;;;-143.48;80.75;79563.22;5075519;28;20020;-44
2022/09/20 04:10:31;;;;;;;6.35;1.98;;;;;;;-143.48;80.68;79583.03;5075710;28;20405;-44
2022/09/20 04:13:31;;;;;;;9.40;2.78;;;;;;;-143.48;80.92;79602.88;5057330;28;20076;-43
2022/09/20 04:16:25;;;;;;;6.60;2.63;;;;;;;-143.48;81.30;79596.94;5075336;28;20048;-45
2022/09/20 04:18:51;;;;;;;6.88;2.00;;;;;;;-143.48;81.48;79598.91;5075573;28;20020;-45
2022/09/20 04:21:31;;;;;;;6.70;2.00;;;;;;;-143.48;81.34;79596.94;5075109;28;20112;-45
2022/09/20 04:24:20;;;;;;;6.03;1.90;;;;;;;-143.48;81.50;79589.00;5075208;28;20059;-43
2022/09/20 04:27:02;;;;;;;4.80;1.90;;;;;;;-143.48;81.34;79592.97;5075381;28;20161;-45
2022/09/20 04:29:33;;;;;;;7.50;2.27;;;;;;;-143.48;81.05;79600.91;5075392;28;20486;-45
2022/09/20 04:31:59;;;;;;;8.18;2.20;;;;;;;-143.48;81.37;79594.94;5075298;28;20194;-44
2022/09/20 04:37:23;;;;;;;6.38;1.80;;;;;;;-143.48;80.81;79614.78;5075091;28;20324;-44
2022/09/20 04:40:01;;;;;;;7.72;1.90;;;;;;;-143.48;80.51;79628.66;5075351;28;20031;-44
2022/09/20 04:42:37;;;;;;;6.85;2.10;;;;;;;-143.48;80.87;79626.69;5058031;28;20032;-43
2022/09/20 04:45:43;;;;;;;8.73;2.60;;;;;;;-143.48;80.84;79634.63;5075192;28;20025;-45
2022/09/20 04:48:18;;;;;;;6.90;2.10;;;;;;;-143.48;80.65;79652.47;5074689;28;20099;-43
2022/09/20 04:51:23;;;;;;;5.15;2.00;;;;;;;-143.48;81.08;79652.47;5074562;28;20100;-43
2022/09/20 04:54:07;;;;;;;4.95;2.30;;;;;;;-143.48;81.26;79638.59;5074536;28;20024;-44
2022/09/20 04:56:53;;;;;;;5.88;2.00;;;;;;;-143.48;80.87;79654.47;5056575;28;20020;-44
2022/09/20 04:59:58;;;;;;;7.32;2.10;;;;;;;-143.48;80.94;79650.50;5074729;28;20112;-47
2022/09/20 05:02:49;;;;;;;6.88;2.25;;;;;;;-143.48;80.32;79678.28;5074504;28;20020;-46
2022/09/20 05:05:51;;;;;;;8.70;2.17;;;;;;;-143.48;80.84;79686.19;5056581;28;20028;-44
2022/09/20 05:08:35;;;;;;;6.00;2.40;;;;;;;-143.48;80.82;79694.13;5074247;28;20029;-44
2022/09/20 05:11:08;;;;;;;6.40;2.00;;;;;;;-143.48;80.70;79702.06;5074459;28;20024;-45
2022/09/20 05:14:04;;;;;;;9.18;2.85;;;;;;;-143.48;80.45;79694.13;5073928;28;20056;-44
2022/09/20 05:16:52;;;;;;;8.43;2.88;;;;;;;-143.48;80.74;79692.16;5074321;28;20142;-45
2022/09/20 05:19:33;;;;;;;12.73;3.13;;;;;;;-143.48;80.58;79690.16;5056098;28;20032;-45
2022/09/20 05:22:53;;;;;;;6.20;2.60;;;;;;;-143.48;80.32;79686.19;5074544;28;20458;-44
2022/09/20 05:25:55;;;;;;;10.05;3.63;;;;;;;-143.48;80.29;79696.13;4999033;28;20039;-45
2022/09/20 05:28:43;;;;;;;14.20;3.33;;;;;;;-143.48;80.19;79694.13;5074504;28;20473;-44
2022/09/20 05:31:39;;;;;;;9.45;3.08;;;;;;;-143.48;80.08;79686.19;5074141;28;20024;-44
2022/09/20 05:34:31;;;;;;;9.10;2.92;;;;;;;-143.48;80.01;79690.16;5073755;28;20071;-43
2022/09/20 05:37:02;;;;;;;8.10;2.70;;;;;;;-143.48;79.98;79684.22;5052714;28;20544;-43
2022/09/20 05:39:53;;;;;;;4.68;2.80;;;;;;;-143.48;79.69;79696.13;5073974;28;20020;-45
2022/09/20 05:42:27;;;;;;;8.32;2.60;;;;;;;-143.48;79.69;79704.06;5073589;28;20064;-42
2022/09/20 05:45:06;;;;;;;6.55;2.60;;;;;;;-143.48;79.70;79708.03;5073775;28;20089;-44
2022/09/20 05:48:01;;;;;;;9.90;2.75;;;;;;;-143.48;79.58;79708.03;5074171;28;20024;-44
2022/09/20 05:50:45;;;;;;;7.28;2.50;;;;;;;-143.48;79.44;79696.13;5073514;28;20017;-44
2022/09/20 05:53:48;;;;;;;9.82;2.92;;;;;;;-143.48;79.51;79702.06;5074087;28;20029;-44
2022/09/20 05:56:51;;;;;;;9.85;3.08;;;;;;;-143.48;78.79;79698.09;5055654;28;20030;-42
2022/09/20 05:59:23;;;;;;;7.53;2.75;;;;;;;-143.48;79.32;79688.19;5073774;28;20024;-45
2022/09/20 06:01:57;;;;;;;7.95;3.22;;;;;;;-143.48;79.27;79672.31;5073298;28;20028;-43
2022/09/20 06:04:25;;;;;;;8.45;3.40;;;;;;;-143.48;79.53;79658.44;5073628;28;20039;-45
2022/09/20 06:06:58;;;;;;;9.68;3.55;;;;;;;-143.48;79.10;79638.59;5073487;28;20515;-44
2022/09/20 06:09:57;;;;;;;12.35;3.85;;;;;;;-143.48;78.68;79642.56;5055389;28;20043;-45
2022/09/20 06:12:51;;;;;;;7.25;3.30;;;;;;;-143.48;78.72;79624.72;5073319;28;20375;-44
2022/09/20 06:15:35;;;;;;;20.27;6.82;;;;;;;-143.48;78.09;79632.63;5041383;28;20094;-42
2022/09/20 06:18:09;;;;;;;41.17;14.20;;;;;;;-143.48;77.47;79622.72;5073676;28;20016;-45
2022/09/20 06:20:53;;;;;;;45.60;16.55;;;;;;;-143.48;77.34;79600.91;5073361;28;20033;-43
2022/09/20 06:23:20;;;;;;;43.90;14.77;;;;;;;-143.48;76.97;79587.00;5073103;28;20028;-44
2022/09/20 06:25:54;;;;;;;31.92;11.50;;;;;;;-143.48;76.54;79571.13;5073552;28;20027;-44
2022/09/20 06:28:50;;;;;;;26.17;7.82;;;;;;;-143.48;75.79;79559.25;5073188;28;20107;-46
2022/09/20 06:31:16;;;;;;;14.63;4.68;;;;;;;-143.48;75.78;79547.34;5051137;28;20499;-45
2022/09/20 06:33:54;;;;;;;11.65;4.10;;;;;;;-143.48;75.43;79539.41;5073504;28;20024;-43
2022/09/20 06:42:27;;;;;;;11.95;2.92;;;;;;;-143.48;75.33;79475.91;5072826;28;20055;-44
2022/09/20 06:44:53;;;;;;;7.50;2.90;;;;;;;-143.48;74.51;79460.06;5073154;28;20021;-44
2022/09/20 06:47:18;;;;;;;15.80;3.13;;;;;;;-143.48;73.80;79406.50;5072940;28;20035;-45
2022/09/20 06:49:45;;;;;;;11.18;3.20;;;;;;;-143.48;73.31;79390.63;5073055;28;20023;-45
2022/09/20 06:52:16;;;;;;;10.50;3.00;;;;;;;-143.48;73.14;79384.66;5072997;28;20016;-45
2022/09/20 06:54:44;;;;;;;12.50;3.47;;;;;;;-143.48;74.25;79388.63;5073040;28;20108;-44
2022/09/20 06:57:13;;;;;;;10.50;3.45;;;;;;;-143.48;73.33;79354.91;5076157;28;20056;-42
2022/09/20 06:59:38;;;;;;;11.25;3.17;;;;;;;-143.48;73.01;79333.09;5076776;28;20074;-45
2022/09/20 07:02:04;;;;;;;18.23;3.97;;;;;;;-143.48;72.41;79313.25;5076982;28;20033;-45
2022/09/20 07:04:29;;;;;;;10.65;3.50;;;;;;;-143.48;71.42;79273.59;5076711;28;20104;-43
2022/09/20 07:07:02;;;;;;;5.88;2.72;;;;;;;-143.48;69.59;79229.94;5076548;28;20024;-45
2022/09/20 07:09:27;;;;;;;7.37;2.57;;;;;;;-143.48;68.27;79212.09;5076607;28;20162;-44
2022/09/20 07:11:54;;;;;;;5.95;2.15;;;;;;;-143.48;70.22;79257.72;5058260;28;20506;-43
2022/09/20 07:14:22;;;;;;;8.40;2.05;;;;;;;-143.48;72.01;79309.28;5058564;28;20049;-46
2022/09/20 07:16:47;;;;;;;6.95;1.85;;;;;;;-143.48;73.24;79356.91;5058281;28;20529;-43
2022/09/20 07:19:12;;;;;;;8.88;2.40;;;;;;;-143.48;74.64;79384.66;5076445;28;20062;-45
2022/09/20 07:21:38;;;;;;;6.60;2.40;;;;;;;-143.48;73.83;79394.59;5058765;28;20017;-45
2022/09/20 07:24:03;;;;;;;9.65;2.33;;;;;;;-143.48;74.26;79394.59;5076660;28;20028;-45
2022/09/20 07:26:29;;;;;;;10.93;2.10;;;;;;;-143.48;73.56;79406.50;5076201;28;20035;-44
2022/09/20 07:28:56;;;;;;;6.72;1.73;;;;;;;-143.48;72.79;79420.38;5076011;28;20386;-45
2022/09/20 07:31:24;;;;;;;6.32;1.52;;;;;;;-143.48;71.68;79452.13;5076613;28;20048;-43
2022/09/20 07:33:49;;;;;;;4.90;0.95;;;;;;;-143.48;70.29;79479.88;5075077;28;20028;-44
2022/09/20 07:36:18;;;;;;;7.63;1.00;;;;;;;-143.48;70.17;79479.88;5057698;28;20031;-42
2022/09/20 07:38:48;;;;;;;8.07;0.80;;;;;;;-143.48;69.51;79473.94;5075892;28;20028;-44
2022/09/20 07:41:14;;;;;;;3.40;1.10;;;;;;;-143.48;70.71;79477.91;5076101;28;20021;-45
2022/09/20 07:43:39;;;;;;;4.15;0.82;;;;;;;-143.48;70.78;79466.00;5076038;28;20444;-42
2022/09/20 07:46:05;;;;;;;5.75;0.90;;;;;;;-143.48;70.38;79460.06;5076074;28;20021;-43
2022/09/20 07:48:33;;;;;;;4.30;1.23;;;;;;;-143.48;68.85;79446.16;5076085;28;20032;-44
2022/09/20 07:51:08;;;;;;;5.85;1.20;;;;;;;-143.48;68.39;79420.38;5058227;28;20020;-45
2022/09/20 07:53:34;;;;;;;5.30;1.77;;;;;;;-143.48;67.70;79388.63;5075726;28;20032;-44
2022/09/20 07:56:07;;;;;;;6.47;1.45;;;;;;;-143.48;67.26;79368.78;5075458;28;20407;-45
2022/09/20 07:58:33;;;;;;;;;;;;;;;-143.48;66.07;79323.16;5076796;28;20174;-45
2022/09/20 08:01:00;;;;;;;3.20;1.05;;;;;;;-143.48;63.42;79253.75;5076112;28;20275;-45
2022/09/20 08:03:28;;;;;;;8.43;1.45;;;;;;;-143.48;59.60;79029.59;5057435;28;20447;-43
2022/09/20 08:06:01;;;;;;;9.80;1.10;;;;;;;-143.48;56.69;78962.16;5075738;28;20103;-43
2022/09/20 08:08:27;;;;;;;4.47;1.10;;;;;;;-143.48;56.43;78918.53;5057261;28;20487;-43
2022/09/20 08:11:05;;;;;;;3.50;0.95;;;;;;;-143.48;56.73;78946.28;5075710;28;20130;-45
2022/09/20 08:13:42;;;;;;;17.13;1.55;;;;;;;-143.48;60.24;79079.19;5075317;28;20443;-43
2022/09/20 08:16:09;;;;;;;6.38;1.27;;;;;;;-143.48;62.69;79146.63;5057383;28;20112;-45
2022/09/20 08:18:35;;;;;;;8.45;1.00;;;;;;;-143.48;64.29;79200.19;5057356;28;20028;-42
2022/09/20 08:21:06;;;;;;;4.72;1.40;;;;;;;-143.48;65.65;79206.13;5075720;28;20020;-45
2022/09/20 08:23:35;;;;;;;5.40;1.05;;;;;;;-143.48;65.02;79249.78;5057496;28;20032;-43
2022/09/20 08:26:01;;;;;;;2.72;1.10;;;;;;;-143.48;65.73;79229.94;5075474;28;20531;-44
2022/09/20 08:28:28;;;;;;;6.68;1.42;;;;;;;-143.48;65.59;79202.16;5075114;28;20107;-45
2022/09/20 08:31:09;;;;;;;5.70;1.40;;;;;;;-143.48;64.38;79176.38;5057115;28;20032;-43
2022/09/20 08:33:38;;;;;;;7.93;1.40;;;;;;;-143.48;60.89;79108.94;5075200;28;20025;-43
2022/09/20 08:36:11;;;;;;;5.65;1.10;;;;;;;-143.48;61.44;79124.81;5057646;28;20028;-44
2022/09/20 08:38:37;;;;;;;6.03;0.98;;;;;;;-143.48;58.24;79134.72;5075156;28;20024;-44
2022/09/20 08:41:20;;;;;;;5.30;1.33;;;;;;;-143.48;59.50;79122.81;5074747;28;20027;-43
2022/09/20 08:44:26;;;;;;;7.95;1.55;;;;;;;-143.48;59.44;79126.78;5075071;28;20039;-44
2022/09/20 08:47:20;;;;;;;7.10;1.10;;;;;;;-143.48;60.93;79150.59;5075090;28;20016;-44
2022/09/20 08:49:45;;;;;;;7.72;1.10;;;;;;;-143.48;61.18;79176.38;5074923;28;20111;-44
2022/09/20 08:52:18;;;;;;;12.00;1.33;;;;;;;-143.48;61.71;79204.16;5074784;28;20478;-46
2022/09/20 08:54:44;;;;;;;;;;;;;;;-143.48;61.16;79166.47;5075858;28;20024;-44
2022/09/20 08:57:19;;;;;;;5.22;0.90;;;;;;;-143.48;61.34;79176.38;5056483;28;19908;-45
2022/09/20 08:59:45;;;;;;;2.42;0.73;;;;;;;-143.48;62.33;79198.19;5074946;28;20032;-43
2022/09/20 09:02:21;;;;;;;8.25;1.00;;;;;;;-143.48;62.09;79224.00;5074399;28;20021;-43
2022/09/20 09:04:48;;;;;;;7.90;1.38;;;;;;;-143.48;60.75;79222.00;5074637;28;20467;-43
2022/09/20 09:07:19;;;;;;;2.75;0.80;;;;;;;-143.48;60.56;79222.00;5074511;28;20406;-45
2022/09/20 09:09:46;;;;;;;3.42;0.95;;;;;;;-143.48;62.90;79229.94;5073966;28;20383;-43
2022/09/20 09:12:32;;;;;;;6.15;0.73;;;;;;;-143.48;63.29;79229.94;5074432;28;20016;-43
2022/09/20 09:15:04;;;;;;;5.50;1.05;;;;;;;-143.48;62.73;79231.94;5074081;28;20048;-44
2022/09/20 09:17:30;;;;;;;4.38;0.80;;;;;;;-143.48;61.79;79227.97;5073999;28;20017;-44
2022/09/20 09:19:58;;;;;;;5.30;1.15;;;;;;;-143.48;60.80;79218.03;5073716;28;20089;-43
2022/09/20 09:22:38;;;;;;;3.80;1.00;;;;;;;-143.48;60.67;79237.88;5074376;28;20025;-47
2022/09/20 09:25:13;;;;;;;6.03;0.80;;;;;;;-143.48;60.72;79249.78;5055953;28;20024;-43
2022/09/20 09:27:59;;;;;;;7.47;1.00;;;;;;;-143.48;62.62;79301.34;5056001;28;20040;-43
2022/09/20 09:30:32;;;;;;;5.45;0.93;;;;;;;-143.48;68.18;79382.69;5074046;28;20379;-44
2022/09/20 09:33:13;;;;;;;3.65;0.90;;;;;;;-143.48;70.97;79400.53;5073885;28;20028;-43
2022/09/20 09:35:38;;;;;;;4.55;0.90;;;;;;;-143.48;71.80;79416.41;5055827;28;20436;-43
2022/09/20 09:38:04;;;;;;;6.53;1.02;;;;;;;-143.48;72.85;79392.59;5073703;28;20075;-42
2022/09/20 09:40:31;;;;;;;3.78;0.90;;;;;;;-143.48;72.87;79370.78;5073994;28;20024;-45
2022/09/20 09:43:01;;;;;;;5.03;1.75;;;;;;;-143.48;71.24;79321.19;5073371;28;20028;-44
2022/09/20 09:45:38;;;;;;;8.50;1.73;;;;;;;-143.48;69.55;79281.50;5072706;28;20036;-47
2022/09/20 09:48:17;;;;;;;8.02;1.33;;;;;;;-143.48;66.87;79142.66;5074472;28;20032;-44
2022/09/20 09:50:44;;;;;;;6.40;1.30;;;;;;;-143.48;64.28;79134.72;5073533;28;20032;-44
2022/09/20 09:53:14;;;;;;;5.32;1.27;;;;;;;-143.48;63.10;79142.66;5073799;28;20033;-55
2022/09/20 09:55:53;;;;;;;4.93;1.23;;;;;;;-143.48;62.91;79180.34;5073541;28;20024;-43
2022/09/20 09:58:26;;;;;;;4.78;1.35;;;;;;;-143.48;64.98;79182.34;5074132;28;20460;-45
2022/09/20 10:00:53;;;;;;;7.30;1.58;;;;;;;-143.48;63.85;79186.31;5073659;28;20031;-54
2022/09/20 10:03:21;;;;;;;7.80;1.10;;;;;;;-143.48;62.72;79188.28;5072986;28;20107;-42
2022/09/20 10:06:20;;;;;;;4.80;1.17;;;;;;;-143.48;62.82;79188.28;5073554;28;20020;-44
2022/09/20 10:08:48;;;;;;;3.60;1.05;;;;;;;-143.48;63.75;79174.41;5073389;28;20025;-43
2022/09/20 10:11:13;;;;;;;4.70;1.65;;;;;;;-143.48;61.25;79174.41;5073848;28;20398;-44
2022/09/20 10:13:56;;;;;;;5.43;1.10;;;;;;;-143.48;62.24;79160.50;5073561;28;20046;-42
2022/09/20 10:16:59;;;;;;;5.65;0.80;;;;;;;-143.48;62.01;79162.50;5055438;28;20035;-48
2022/09/20 10:19:54;;;;;;;6.57;1.00;;;;;;;-143.48;59.93;79138.69;5073115;28;20052;-45
2022/09/20 10:22:49;;;;;;;5.07;1.15;;;;;;;-143.48;57.87;79104.97;5073099;28;20028;-43
2022/09/20 10:25:33;;;;;;;4.93;0.90;;;;;;;-143.48;58.78;79063.31;5073355;28;20471;-44
2022/09/20 10:28:23;;;;;;;4.10;1.00;;;;;;;-143.48;56.67;79071.25;5073634;28;20020;-43
2022/09/20 10:31:01;;;;;;;6.00;0.90;;;;;;;-143.48;56.26;79049.44;5076759;28;20021;-43
2022/09/20 10:33:37;;;;;;;5.20;0.98;;;;;;;-143.48;54.99;78980.00;5077475;28;20052;-44
2022/09/20 10:36:17;;;;;;;4.53;1.23;;;;;;;-143.48;53.12;78944.31;5077257;28;20023;-44
2022/09/20 10:39:33;;;;;;;9.43;1.23;;;;;;;-143.48;53.31;78966.13;5077222;28;20031;-43
2022/09/20 10:45:17;;;;;;;4.45;1.08;;;;;;;-143.48;52.15;78970.09;5076986;28;20054;-45
2022/09/20 10:47:51;;;;;;;9.95;1.42;;;;;;;-143.48;54.00;78997.88;5077212;28;20020;-43
2022/09/20 10:50:43;;;;;;;9.07;0.90;;;;;;;-143.48;54.14;78918.53;5077117;28;20027;-44
2022/09/20 10:53:34;;;;;;;5.95;0.90;;;;;;;-143.48;52.89;78870.91;5076838;28;20024;-44
2022/09/20 10:56:26;;;;;;;8.45;1.08;;;;;;;-143.48;51.53;78807.44;5076848;28;20514;-44
2022/09/20 10:59:39;;;;;;;6.68;1.10;;;;;;;-143.48;51.45;78880.84;5076998;28;20063;-45
2022/09/20 11:02:29;;;;;;;5.70;1.27;;;;;;;-143.48;53.22;78902.66;5058991;28;20089;-41
2022/09/20 11:04:59;;;;;;;2.95;0.70;;;;;;;-143.48;52.74;78930.41;5076660;28;20055;-44
2022/09/20 11:07:48;;;;;;;4.95;0.93;;;;;;;-143.48;51.71;78950.25;5076549;28;20040;-43
2022/09/20 11:10:19;;;;;;;5.28;0.82;;;;;;;-143.48;50.66;78900.66;5076083;28;20035;-44
2022/09/20 11:13:23;;;;;;;6.68;1.05;;;;;;;-143.48;49.58;78853.06;5076250;28;20024;-43
2022/09/20 11:16:12;;;;;;;4.68;0.90;;;;;;;-143.48;49.45;78829.25;5076325;28;20106;-51
2022/09/20 11:18:45;;;;;;;7.05;0.80;;;;;;;-143.48;49.41;78837.19;5057940;28;20020;-43
2022/09/20 11:21:35;;;;;;;5.05;0.85;;;;;;;-143.48;48.36;78747.94;5057502;28;20032;-43
2022/09/20 11:24:34;;;;;;;7.15;1.20;;;;;;;-143.48;48.91;78807.44;5057395;28;20052;-43
2022/09/20 11:27:07;;;;;;;5.82;1.20;;;;;;;-143.48;48.20;78797.53;5032351;28;20024;-43
2022/09/20 11:29:45;;;;;;;3.08;0.75;;;;;;;-143.48;48.39;78825.31;5040349;28;20446;-43
2022/09/20 11:32:18;;;;;;;8.90;1.33;;;;;;;-143.48;49.28;78857.03;5075859;28;20030;-44
2022/09/20 11:34:55;;;;;;;5.03;0.93;;;;;;;-143.48;47.17;78841.16;5075960;28;20028;-42
2022/09/20 11:37:24;;;;;;;6.68;1.10;;;;;;;-143.48;47.33;78791.59;5057557;28;20028;-44
2022/09/20 11:39:55;;;;;;;6.82;0.88;;;;;;;-143.48;47.82;78773.72;5041543;28;20479;-40
2022/09/20 11:42:29;;;;;;;11.82;1.63;;;;;;;-143.48;47.55;78726.13;5056389;28;20086;-51
2022/09/20 11:44:55;;;;;;;7.65;1.40;;;;;;;-143.48;46.75;78712.25;5057470;28;20090;-43
2022/09/20 11:47:47;;;;;;;4.95;0.90;;;;;;;-143.48;46.06;78674.56;5057319;28;20085;-44
2022/09/20 11:50:36;;;;;;;5.13;0.98;;;;;;;-143.48;45.80;78666.63;5057943;28;20044;-43
2022/09/20 11:53:33;;;;;;;5.10;0.93;;;;;;;-143.48;46.10;78765.78;5058489;28;20367;-43
2022/09/20 11:56:21;;;;;;;5.13;1.05;;;;;;;-143.48;45.88;78771.75;5058475;28;20028;-44
2022/09/20 11:58:52;;;;;;;5.32;0.88;;;;;;;-143.48;46.95;78761.84;5057672;28;20378;-44
2022/09/20 12:01:26;;;;;;;6.35;1.20;;;;;;;-143.48;45.25;78773.72;5075028;28;20032;-44
2022/09/20 12:03:54;;;;;;;7.90;1.30;;;;;;;-143.48;46.19;78783.66;5075893;28;20028;-46
2022/09/20 12:06:41;;;;;;;9.25;1.10;;;;;;;-143.48;43.15;78581.34;5075100;28;20473;-44
2022/09/20 12:09:25;;;;;;;5.97;1.00;;;;;;;-143.48;42.30;78638.84;5074474;28;20066;-44
2022/09/20 12:11:51;;;;;;;6.03;1.30;;;;;;;-143.48;44.62;78738.03;5073891;28;20103;-43
2022/09/20 12:14:26;;;;;;;5.47;1.15;;;;;;;-143.48;46.42;78837.19;5052324;28;20056;-44
2022/09/20 12:16:52;;;;;;;4.68;1.10;;;;;;;-143.48;46.39;78855.06;5054388;28;20056;-42
2022/09/20 12:19:20;;;;;;;7.05;1.42;;;;;;;-143.48;47.69;78944.31;5053997;28;20033;-45
2022/09/20 12:21:57;;;;;;;4.80;1.08;;;;;;;-143.48;48.34;78922.50;5054500;28;20032;-43
2022/09/20 12:24:28;;;;;;;7.93;1.13;;;;;;;-143.48;49.08;78938.34;5054927;28;20031;-44